Time;durP1;ratioP1;P1;durP2;ratioP2;P2;SDS_P1;SDS_P2;PMS_P1;PMS_P2;Temp;Humidity;BMP_temperature;BMP_pressure;BME280_temperature;BME280_humidity;BME280_pressure;Samples;Min_cycle;Max_cycle;Signal;HPM_P1;HPM_P2
2022/08/07 00:00:44;;;;;;;;;;;;;;;9.58;67.87;100482.17;1719096;82;20123;-60
2022/08/07 00:03:11;;;;;;;;;;;;;;;9.56;67.97;100480.05;1720044;82;20714;-60
2022/08/07 00:05:37;;;;;;;;;;;;;;;9.55;68.09;100486.19;1717642;82;20135;-60
2022/08/07 00:08:04;;;;;;;;;;;;;;;9.53;68.12;100489.28;1716492;82;20096;-60
2022/08/07 00:10:31;;;;;;;;;;;;;;;9.53;68.26;100484.52;1720051;82;20076;-60
2022/08/07 00:13:02;;;;;;;;;;;;;;;9.50;68.35;100482.02;1717323;82;20138;-60
2022/08/07 00:15:29;;;;;;;;;;;;;;;9.47;68.51;100486.86;1715129;82;21229;-60
2022/08/07 00:17:56;;;;;;;;;;;;;;;9.45;68.50;100484.75;1720562;82;20144;-60
2022/08/07 00:20:23;;;;;;;;;;;;;;;9.44;68.64;100486.96;1719707;82;20472;-60
2022/08/07 00:22:49;;;;;;;;;;;;;;;9.42;68.73;100484.84;1718971;82;20116;-60
2022/08/07 00:25:16;;;;;;;;;;;;;;;9.40;68.79;100486.63;1718331;82;20122;-60
2022/08/07 00:27:42;;;;;;;;;;;;;;;9.39;68.85;100484.94;1721555;82;20984;-60
2022/08/07 00:30:09;;;;;;;;;;;;;;;9.36;68.90;100491.09;1718456;82;20098;-60
2022/08/07 00:32:36;;;;;;;;;;;;;;;9.33;69.00;100491.64;1708716;82;20470;-60
2022/08/07 00:35:03;;;;;;;;;;;;;;;9.28;69.04;100487.02;1719341;82;20100;-60
2022/08/07 00:37:29;;;;;;;;;;;;;;;9.21;69.00;100482.87;1715173;82;20086;-60
2022/08/07 00:39:56;;;;;;;;;;;;;;;9.15;69.06;100482.14;1697263;83;20952;-60
2022/08/07 00:42:22;;;;;;;;;;;;;;;9.10;69.15;100484.05;1694855;83;20397;-60
2022/08/07 00:44:49;;;;;;;;;;;;;;;9.07;69.19;100486.72;1691802;82;20168;-60
2022/08/07 00:47:15;;;;;;;;;;;;;;;9.05;69.29;100483.33;1713429;82;20473;-60
2022/08/07 00:49:41;;;;;;;;;;;;;;;9.08;69.43;100485.84;1709802;82;20089;-61
2022/08/07 00:52:08;;;;;;;;;;;;;;;9.09;69.65;100484.94;1715190;82;21073;-61
2022/08/07 00:54:35;;;;;;;;;;;;;;;9.09;69.75;100477.12;1698801;83;20086;-60
2022/08/07 00:57:01;;;;;;;;;;;;;;;9.08;69.84;100487.59;1723308;81;20446;-61
2022/08/07 00:59:27;;;;;;;;;;;;;;;9.06;70.02;100479.81;1701178;83;20138;-61
2022/08/07 01:01:54;;;;;;;;;;;;;;;9.07;70.06;100482.81;1715182;82;20110;-61
2022/08/07 01:04:20;;;;;;;;;;;;;;;9.08;70.20;100478.03;1719786;82;21949;-61
2022/08/07 01:06:47;;;;;;;;;;;;;;;9.10;70.27;100487.08;1720151;83;20112;-61
2022/08/07 01:09:14;;;;;;;;;;;;;;;9.11;70.43;100490.11;1718757;82;20086;-61
2022/08/07 01:11:40;;;;;;;;;;;;;;;9.12;70.41;100487.45;1712023;83;20463;-61
2022/08/07 01:14:07;;;;;;;;;;;;;;;9.12;70.59;100486.14;1698068;83;20089;-60
2022/08/07 01:16:35;;;;;;;;;;;;;;;9.17;70.72;100488.63;1705949;83;21147;-61
2022/08/07 01:19:04;;;;;;;;;;;;;;;9.18;70.78;100485.95;1711176;83;20118;-61
2022/08/07 01:21:31;;;;;;;;;;;;;;;9.16;70.81;100479.96;1690114;83;20125;-61
2022/08/07 01:23:58;;;;;;;;;;;;;;;9.13;70.75;100489.17;1707496;82;20139;-61
2022/08/07 01:26:24;;;;;;;;;;;;;;;9.08;70.91;100485.84;1739440;81;20420;-61
2022/08/07 01:28:52;;;;;;;;;;;;;;;9.03;71.08;100489.02;1715596;82;21293;-61
2022/08/07 01:31:20;;;;;;;;;;;;;;;9.01;71.05;100486.91;1717645;82;20259;-60
2022/08/07 01:33:47;;;;;;;;;;;;;;;9.00;71.17;100482.59;1713898;82;20433;-60
2022/08/07 01:36:13;;;;;;;;;;;;;;;8.99;71.40;100477.00;1724817;82;20103;-61
2022/08/07 01:38:40;;;;;;;;;;;;;;;8.96;71.37;100475.75;1716614;82;20508;-61
2022/08/07 01:41:08;;;;;;;;;;;;;;;8.99;71.54;100473.09;1720580;82;21244;-61
2022/08/07 01:43:35;;;;;;;;;;;;;;;9.02;71.77;100475.61;1717331;82;20114;-61
2022/08/07 01:46:02;;;;;;;;;;;;;;;9.04;71.79;100477.69;1719067;82;20121;-61
2022/08/07 01:48:28;;;;;;;;;;;;;;;9.05;71.83;100482.03;1722807;82;20124;-61
2022/08/07 01:50:58;;;;;;;;;;;;;;;9.06;72.06;100482.42;1722255;82;20130;-61
2022/08/07 01:53:26;;;;;;;;;;;;;;;9.07;72.08;100484.11;1716205;82;21612;-61
2022/08/07 01:55:59;;;;;;;;;;;;;;;9.09;72.28;100488.84;1715536;81;20177;-61
2022/08/07 01:58:29;;;;;;;;;;;;;;;9.10;72.38;100491.88;1714836;82;20126;-61
2022/08/07 02:01:02;;;;;;;;;;;;;;;9.12;72.48;100490.05;1720037;82;20157;-60
2022/08/07 02:03:29;;;;;;;;;;;;;;;9.13;72.54;100480.48;1717696;82;20100;-61
2022/08/07 02:06:02;;;;;;;;;;;;;;;9.15;72.59;100482.14;1692859;82;21053;-61
2022/08/07 02:08:29;;;;;;;;;;;;;;;9.17;72.66;100485.56;1721627;82;20769;-60
2022/08/07 02:10:58;;;;;;;;;;;;;;;9.18;72.82;100480.75;1716356;82;20138;-61
2022/08/07 02:13:26;;;;;;;;;;;;;;;9.20;72.78;100488.53;1719344;81;20115;-61
2022/08/07 02:15:54;;;;;;;;;;;;;;;9.18;72.83;100491.17;1719524;82;20097;-61
2022/08/07 02:18:21;;;;;;;;;;;;;;;9.19;72.99;100491.59;1721435;82;22092;-60
2022/08/07 02:20:50;;;;;;;;;;;;;;;9.21;73.04;100498.50;1722783;82;20120;-61
2022/08/07 02:23:18;;;;;;;;;;;;;;;9.19;73.07;100486.38;1720531;81;20154;-61
2022/08/07 02:25:45;;;;;;;;;;;;;;;9.16;73.11;100499.50;1724044;82;20531;-60
2022/08/07 02:28:13;;;;;;;;;;;;;;;9.14;73.17;100498.69;1717219;82;20153;-60
2022/08/07 02:30:40;;;;;;;;;;;;;;;9.12;73.19;100497.87;1715030;82;21234;-60
2022/08/07 02:33:08;;;;;;;;;;;;;;;9.13;73.31;100499.59;1721648;82;20176;-60
2022/08/07 02:35:35;;;;;;;;;;;;;;;9.16;73.46;100496.89;1714329;82;20105;-60
2022/08/07 02:38:03;;;;;;;;;;;;;;;9.17;73.54;100497.29;1720450;82;20118;-60
2022/08/07 02:40:30;;;;;;;;;;;;;;;9.20;73.62;100492.44;1717666;82;20116;-60
2022/08/07 02:42:58;;;;;;;;;;;;;;;9.23;73.60;100492.80;1717237;82;21810;-60
2022/08/07 02:45:26;;;;;;;;;;;;;;;9.26;73.66;100503.13;1724518;81;20162;-60
2022/08/07 02:47:53;;;;;;;;;;;;;;;9.30;73.72;100506.04;1726189;82;20129;-60
2022/08/07 02:50:20;;;;;;;;;;;;;;;9.36;73.78;100512.40;1720986;82;20185;-60
2022/08/07 02:52:55;;;;;;;;;;;;;;;9.41;73.88;100514.42;1714268;82;20110;-60
2022/08/07 02:55:23;;;;;;;;;;;;;;;9.47;73.95;100506.41;1716083;82;21786;-60
2022/08/07 02:57:52;;;;;;;;;;;;;;;9.57;74.12;100513.04;1722782;82;20133;-60
2022/08/07 03:00:19;;;;;;;;;;;;;;;9.68;74.21;100511.86;1723396;81;20108;-60
2022/08/07 03:02:47;;;;;;;;;;;;;;;9.76;74.31;100512.48;1715700;82;20114;-60
2022/08/07 03:05:15;;;;;;;;;;;;;;;9.87;74.41;100507.78;1719247;82;20123;-61
2022/08/07 03:07:42;;;;;;;;;;;;;;;9.96;74.45;100510.09;1719601;82;21900;-60
2022/08/07 03:10:09;;;;;;;;;;;;;;;10.04;74.46;100510.70;1726547;82;20096;-61
2022/08/07 03:12:36;;;;;;;;;;;;;;;10.14;74.60;100512.57;1718046;82;20102;-61
2022/08/07 03:15:07;;;;;;;;;;;;;;;10.21;74.65;100506.22;1719673;81;20152;-61
2022/08/07 03:17:36;;;;;;;;;;;;;;;10.29;74.71;100505.55;1716480;82;20086;-60
2022/08/07 03:20:04;;;;;;;;;;;;;;;10.36;74.74;100502.27;1716854;81;21046;-61
2022/08/07 03:22:30;;;;;;;;;;;;;;;10.44;74.73;100507.23;1719337;82;20122;-60
2022/08/07 03:24:58;;;;;;;;;;;;;;;10.43;74.29;100499.87;1720339;82;20126;-61
2022/08/07 03:27:26;;;;;;;;;;;;;;;10.37;74.11;100503.16;1720387;82;20121;-60
2022/08/07 03:29:52;;;;;;;;;;;;;;;10.27;74.10;100502.59;1719788;82;20092;-60
2022/08/07 03:32:28;;;;;;;;;;;;;;;10.18;74.19;100497.20;1720782;82;21006;-60
2022/08/07 03:34:57;;;;;;;;;;;;;;;10.16;74.32;100498.15;1715452;82;20442;-61
2022/08/07 03:37:24;;;;;;;;;;;;;;;10.15;74.32;100499.06;1717830;82;20417;-61
2022/08/07 03:39:51;;;;;;;;;;;;;;;10.14;74.44;100494.73;1717707;82;20115;-60
2022/08/07 03:42:18;;;;;;;;;;;;;;;10.14;74.38;100499.52;1714851;81;20647;-60
2022/08/07 03:44:45;;;;;;;;;;;;;;;10.11;74.45;100498.75;1716415;82;21249;-60
2022/08/07 03:47:12;;;;;;;;;;;;;;;10.13;74.68;100503.47;1725754;82;20422;-61
2022/08/07 03:49:39;;;;;;;;;;;;;;;10.14;74.63;100505.16;1721725;81;20147;-61
2022/08/07 03:52:07;;;;;;;;;;;;;;;10.11;74.67;100506.15;1719990;82;20179;-61
2022/08/07 03:54:34;;;;;;;;;;;;;;;10.11;74.65;100507.87;1721618;82;20481;-59
2022/08/07 03:57:02;;;;;;;;;;;;;;;10.05;74.56;100501.98;1725353;81;21070;-59
2022/08/07 03:59:31;;;;;;;;;;;;;;;10.03;74.61;100507.70;1721680;82;20125;-59
2022/08/07 04:01:58;;;;;;;;;;;;;;;10.22;75.08;100503.16;1722375;81;20091;-60
2022/08/07 04:04:24;;;;;;;;;;;;;;;10.48;74.92;100512.31;1720924;82;20751;-60
2022/08/07 04:06:51;;;;;;;;;;;;;;;10.94;75.25;100509.38;1725500;82;20120;-59
2022/08/07 04:09:19;;;;;;;;;;;;;;;11.46;75.56;100503.98;1725728;82;21230;-60
2022/08/07 04:11:46;;;;;;;;;;;;;;;12.97;76.10;100498.63;1718600;82;20099;-60
2022/08/07 04:14:12;;;;;;;;;;;;;;;14.07;74.53;100496.07;1721508;82;20120;-60
2022/08/07 04:16:39;;;;;;;;;;;;;;;14.93;73.31;100496.97;1723509;81;20468;-61
2022/08/07 04:19:07;;;;;;;;;;;;;;;15.18;73.60;100509.66;1739709;81;20120;-61
2022/08/07 04:21:33;;;;;;;;;;;;;;;16.09;73.60;100504.64;1702397;83;21082;-61
2022/08/07 04:24:00;;;;;;;;;;;;;;;17.30;73.08;100501.80;1721799;82;20482;-60
2022/08/07 04:26:30;;;;;;;;;;;;;;;18.38;72.70;100504.47;1721118;82;20122;-62
2022/08/07 04:28:56;;;;;;;;;;;;;;;19.38;71.72;100506.38;1720430;82;20599;-61
2022/08/07 04:31:23;;;;;;;;;;;;;;;20.21;71.36;100502.96;1721115;82;20457;-61
2022/08/07 04:33:50;;;;;;;;;;;;;;;20.95;70.80;100500.02;1722179;81;21221;-61
2022/08/07 04:36:17;;;;;;;;;;;;;;;21.75;70.53;100502.95;1721147;82;20172;-62
2022/08/07 04:38:43;;;;;;;;;;;;;;;22.66;70.56;100500.23;1719129;82;20146;-61
2022/08/07 04:41:10;;;;;;;;;;;;;;;23.49;69.30;100500.53;1736837;81;20143;-62
2022/08/07 04:43:38;;;;;;;;;;;;;;;23.89;68.09;100505.84;1720438;82;20141;-61
2022/08/07 04:46:23;;;;;;;;;;;;;;;24.30;67.77;100493.17;1722482;82;21679;-61
2022/08/07 04:49:13;;;;;;;;;;;;;;;24.83;67.58;100496.33;1738898;80;20140;-61
2022/08/07 04:51:45;;;;;;;;;;;;;;;25.12;66.80;100499.73;1725999;81;20166;-62
2022/08/07 04:54:18;;;;;;;;;;;;;;;25.81;66.89;100497.52;1718478;82;20430;-61
2022/08/07 04:57:00;;;;;;;;;;;;;;;26.39;65.80;100499.73;1723861;82;20854;-61
2022/08/07 04:59:36;;;;;;;;;;;;;;;26.51;64.88;100502.52;1722840;82;21182;-60
2022/08/07 05:02:09;;;;;;;;;;;;;;;26.89;64.66;100495.06;1724099;82;20112;-61
2022/08/07 05:04:54;;;;;;;;;;;;;;;27.24;64.14;100498.59;1723675;82;20125;-61
2022/08/07 05:07:39;;;;;;;;;;;;;;;27.89;63.86;100493.39;1720863;82;20095;-61
2022/08/07 05:10:11;;;;;;;;;;;;;;;28.40;63.38;100497.77;1718756;81;20100;-63
2022/08/07 05:12:53;;;;;;;;;;;;;;;28.99;62.54;100492.98;1715681;82;21051;-61
2022/08/07 05:15:23;;;;;;;;;;;;;;;29.12;61.34;100494.62;1718711;82;20161;-62
2022/08/07 05:17:56;;;;;;;;;;;;;;;29.45;60.56;100506.58;1718954;82;20132;-62
2022/08/07 05:20:25;;;;;;;;;;;;;;;29.50;59.50;100502.86;1720353;82;21041;-62
2022/08/07 05:22:54;;;;;;;;;;;;;;;29.40;58.50;100506.27;1713816;82;20683;-61
2022/08/07 05:25:22;;;;;;;;;;;;;;;29.43;58.54;100505.91;1717129;82;21149;-62
2022/08/07 05:27:49;;;;;;;;;;;;;;;29.63;58.48;100509.88;1721564;81;21007;-62
2022/08/07 05:30:16;;;;;;;;;;;;;;;30.18;58.02;100512.52;1718249;81;20094;-62
2022/08/07 05:32:46;;;;;;;;;;;;;;;29.89;55.97;100508.70;1717030;82;20086;-61
2022/08/07 05:35:13;;;;;;;;;;;;;;;29.68;56.29;100511.19;1717253;82;20133;-62
2022/08/07 05:37:40;;;;;;;;;;;;;;;29.71;55.93;100521.59;1702664;82;22129;-61
2022/08/07 05:40:08;;;;;;;;;;;;;;;29.39;54.42;100516.70;1718273;82;20163;-61
2022/08/07 05:42:35;;;;;;;;;;;;;;;29.43;54.59;100519.36;1722068;82;20171;-61
2022/08/07 05:45:02;;;;;;;;;;;;;;;28.97;53.93;100529.94;1717728;82;20119;-61
2022/08/07 05:47:28;;;;;;;;;;;;;;;28.65;53.45;100526.33;1705442;82;20506;-61
2022/08/07 05:49:55;;;;;;;;;;;;;;;28.02;52.87;100527.81;1717518;82;21037;-61
2022/08/07 05:52:22;;;;;;;;;;;;;;;27.86;53.49;100536.67;1726839;82;20092;-61
2022/08/07 05:54:48;;;;;;;;;;;;;;;28.27;52.92;100539.41;1718440;82;20072;-61
2022/08/07 05:57:16;;;;;;;;;;;;;;;28.48;52.75;100535.39;1720503;82;20120;-62
2022/08/07 05:59:45;;;;;;;;;;;;;;;28.82;52.29;100535.67;1716111;82;20158;-61
2022/08/07 06:02:14;;;;;;;;;;;;;;;29.20;52.09;100540.30;1716016;82;21106;-62
2022/08/07 06:04:44;;;;;;;;;;;;;;;29.35;50.79;100538.22;1721458;82;20114;-62
2022/08/07 06:07:10;;;;;;;;;;;;;;;29.64;51.45;100538.45;1723802;82;20139;-61
2022/08/07 06:09:36;;;;;;;;;;;;;;;29.96;50.34;100533.88;1719469;82;20112;-62
2022/08/07 06:12:03;;;;;;;;;;;;;;;29.93;50.00;100539.62;1725173;82;20779;-62
2022/08/07 06:14:30;;;;;;;;;;;;;;;30.11;50.26;100537.48;1723116;82;21258;-62
2022/08/07 06:16:56;;;;;;;;;;;;;;;30.33;49.58;100540.34;1717763;82;20459;-61
2022/08/07 06:19:24;;;;;;;;;;;;;;;30.26;49.26;100547.50;1716862;82;20116;-61
2022/08/07 06:21:50;;;;;;;;;;;;;;;29.82;47.43;100548.11;1720977;82;20139;-62
2022/08/07 06:24:17;;;;;;;;;;;;;;;29.45;48.09;100546.93;1719912;82;20440;-61
2022/08/07 06:26:43;;;;;;;;;;;;;;;29.38;46.60;100555.36;1714810;82;21066;-62
2022/08/07 06:29:10;;;;;;;;;;;;;;;29.03;47.47;100554.81;1717734;82;20309;-61
2022/08/07 06:31:36;;;;;;;;;;;;;;;29.12;47.07;100555.12;1712371;82;20127;-61
2022/08/07 06:34:03;;;;;;;;;;;;;;;29.06;46.96;100553.64;1709560;82;20516;-61
2022/08/07 06:36:29;;;;;;;;;;;;;;;28.90;46.73;100562.54;1714512;82;20095;-61
2022/08/07 06:38:55;;;;;;;;;;;;;;;28.77;46.02;100559.89;1712004;82;21108;-61
2022/08/07 06:41:35;;;;;;;;;;;;;;;28.87;46.52;100559.69;1715821;81;20103;-61
2022/08/07 06:44:03;;;;;;;;;;;;;;;28.71;44.62;100563.27;1711925;82;20095;-62
2022/08/07 06:46:29;;;;;;;;;;;;;;;27.70;44.28;100563.45;1715079;82;20450;-62
2022/08/07 06:48:56;;;;;;;;;;;;;;;26.80;44.49;100562.97;1715093;82;20096;-61
2022/08/07 06:51:25;;;;;;;;;;;;;;;26.58;44.38;100566.16;1712188;82;21929;-61
2022/08/07 06:53:52;;;;;;;;;;;;;;;26.33;44.58;100568.63;1714445;82;20116;-61
2022/08/07 06:56:38;;;;;;;;;;;;;;;25.59;43.02;100570.49;1715618;82;20204;-61
2022/08/07 06:58:48;;;;;;;;;;;;;;;25.23;44.45;100579.75;1712184;82;20134;-61
2022/08/07 07:01:15;;;;;;;;;;;;;;;24.56;43.58;100580.70;1720447;82;20128;-61
2022/08/07 07:03:42;;;;;;;;;;;;;;;23.58;44.04;100580.17;1712756;82;21828;-61
2022/08/07 07:06:09;;;;;;;;;;;;;;;23.35;45.09;100580.38;1717398;82;20426;-61
2022/08/07 07:08:36;;;;;;;;;;;;;;;23.58;44.27;100582.84;1712276;82;20097;-61
2022/08/07 07:11:05;;;;;;;;;;;;;;;23.82;45.16;100572.70;1714388;82;20113;-62
2022/08/07 07:13:35;;;;;;;;;;;;;;;23.97;44.69;100584.30;1718048;82;20117;-61
2022/08/07 07:16:06;;;;;;;;;;;;;;;23.59;44.24;100579.21;1710314;81;21117;-61
2022/08/07 07:18:41;;;;;;;;;;;;;;;23.19;44.22;100581.34;1690861;84;20125;-61
2022/08/07 07:21:13;;;;;;;;;;;;;;;23.01;44.97;100583.30;1713569;82;20103;-61
2022/08/07 07:23:40;;;;;;;;;;;;;;;23.27;45.24;100578.86;1705879;82;20482;-61
2022/08/07 07:26:09;;;;;;;;;;;;;;;23.30;45.33;100563.97;1707988;82;20450;-60
2022/08/07 07:28:41;;;;;;;;;;;;;;;23.13;45.09;100569.89;1709970;82;21956;-60
2022/08/07 07:31:11;;;;;;;;;;;;;;;22.87;45.37;100570.29;1710852;83;20441;-60
2022/08/07 07:33:38;;;;;;;;;;;;;;;22.91;45.67;100561.54;1713706;81;20138;-60
2022/08/07 07:36:07;;;;;;;;;;;;;;;22.54;44.73;100572.16;1710735;82;20130;-60
2022/08/07 07:38:33;;;;;;;;;;;;;;;21.82;45.29;100560.81;1713069;82;20505;-60
2022/08/07 07:41:05;;;;;;;;;;;;;;;21.02;45.72;100564.93;1711856;83;20611;-60
2022/08/07 07:43:33;;;;;;;;;;;;;;;20.40;45.88;100566.56;1709629;82;20111;-61
2022/08/07 07:46:00;;;;;;;;;;;;;;;20.16;46.32;100566.09;1714496;82;20124;-60
2022/08/07 07:48:27;;;;;;;;;;;;;;;20.30;46.83;100563.25;1717177;81;20110;-60
2022/08/07 07:50:56;;;;;;;;;;;;;;;20.76;46.85;100557.17;1711535;83;20121;-60
2022/08/07 07:53:23;;;;;;;;;;;;;;;21.35;47.06;100560.61;1710714;82;21652;-60
2022/08/07 07:55:52;;;;;;;;;;;;;;;21.66;46.13;100560.36;1713979;82;20259;-61
2022/08/07 07:58:19;;;;;;;;;;;;;;;21.18;46.22;100565.43;1716680;83;20104;-60
2022/08/07 08:00:46;;;;;;;;;;;;;;;20.58;46.65;100566.52;1711720;83;20454;-61
2022/08/07 08:03:15;;;;;;;;;;;;;;;19.84;47.05;100569.30;1713040;81;20111;-61
2022/08/07 08:05:42;;;;;;;;;;;;;;;19.36;47.50;100570.50;1721333;82;21134;-61
2022/08/07 08:08:10;;;;;;;;;;;;;;;19.04;47.78;100582.48;1723277;82;20103;-61
2022/08/07 08:10:39;;;;;;;;;;;;;;;18.82;47.88;100582.65;1721447;82;20100;-61
2022/08/07 08:13:07;;;;;;;;;;;;;;;18.73;48.36;100589.35;1725431;82;21043;-61
2022/08/07 08:15:37;;;;;;;;;;;;;;;18.62;48.53;100591.03;1722232;82;20468;-61
2022/08/07 08:18:06;;;;;;;;;;;;;;;18.50;49.45;100588.25;1729548;82;21932;-61
2022/08/07 08:20:33;;;;;;;;;;;;;;;18.42;49.26;100590.55;1720189;82;20131;-61
2022/08/07 08:28:33;;;;;;;;;;;;;;;18.84;49.98;100585.17;1715884;82;20114;-61
2022/08/07 08:30:59;;;;;;;;;;;;;;;19.11;49.65;100581.12;1702026;82;21050;-61
2022/08/07 08:33:31;;;;;;;;;;;;;;;19.30;49.04;100574.91;1716682;81;20500;-61
2022/08/07 08:35:57;;;;;;;;;;;;;;;19.53;49.39;100575.09;1717617;82;20079;-61
2022/08/07 08:38:27;;;;;;;;;;;;;;;19.66;49.05;100581.22;1717751;82;20448;-61
2022/08/07 08:40:57;;;;;;;;;;;;;;;19.63;49.25;100576.11;1719987;82;20446;-60
2022/08/07 08:43:27;;;;;;;;;;;;;;;19.88;49.58;100573.44;1710320;82;21238;-61
2022/08/07 08:45:57;;;;;;;;;;;;;;;20.34;50.25;100570.04;1715355;81;20086;-61
2022/08/07 08:48:51;;;;;;;;;;;;;;;21.00;50.26;100564.20;1718572;82;20477;-61
2022/08/07 08:51:33;;;;;;;;;;;;;;;21.29;49.17;100561.09;1715900;82;20091;-61
2022/08/07 08:54:09;;;;;;;;;;;;;;;21.07;47.66;100569.41;1710555;82;20118;-60
2022/08/07 08:56:41;;;;;;;;;;;;;;;20.42;48.42;100565.98;1715019;82;21153;-60
2022/08/07 08:59:28;;;;;;;;;;;;;;;20.69;48.92;100558.59;1714985;82;20488;-60
2022/08/07 09:02:06;;;;;;;;;;;;;;;20.92;49.26;100554.65;1716293;82;20092;-61
2022/08/07 09:04:42;;;;;;;;;;;;;;;21.72;49.65;100560.35;1714529;82;20140;-61
2022/08/07 09:07:37;;;;;;;;;;;;;;;22.05;49.08;100552.28;1714231;82;20140;-61
2022/08/07 09:10:13;;;;;;;;;;;;;;;22.33;47.51;100557.52;1716289;82;21900;-61
2022/08/07 09:12:52;;;;;;;;;;;;;;;21.88;48.25;100555.48;1721476;82;20446;-61
2022/08/07 09:15:37;;;;;;;;;;;;;;;21.56;47.71;100561.56;1712249;82;20165;-60
2022/08/07 09:18:24;;;;;;;;;;;;;;;21.08;48.15;100572.41;1715615;82;20114;-61
2022/08/07 09:21:27;;;;;;;;;;;;;;;20.82;47.98;100573.59;1707287;82;20107;-60
2022/08/07 09:24:15;;;;;;;;;;;;;;;20.13;48.04;100573.78;1717278;82;21068;-61
2022/08/07 09:27:04;;;;;;;;;;;;;;;19.52;48.94;100581.33;1722523;82;20238;-60
2022/08/07 09:29:49;;;;;;;;;;;;;;;19.30;49.26;100585.50;1726858;82;20114;-60
2022/08/07 09:32:22;;;;;;;;;;;;;;;19.11;49.43;100582.44;1708083;83;20114;-60
2022/08/07 09:35:19;;;;;;;;;;;;;;;18.91;50.49;100582.49;1712723;82;20145;-60
2022/08/07 09:38:06;;;;;;;;;;;;;;;18.80;50.42;100584.55;1724604;82;21183;-60
2022/08/07 09:40:39;;;;;;;;;;;;;;;18.85;50.49;100585.08;1721981;82;20162;-60
2022/08/07 09:43:34;;;;;;;;;;;;;;;18.99;50.36;100581.02;1723693;82;20141;-61
2022/08/07 09:46:35;;;;;;;;;;;;;;;18.97;50.30;100580.74;1721225;82;20088;-61
2022/08/07 09:49:11;;;;;;;;;;;;;;;19.02;50.94;100581.28;1721509;82;20119;-60
2022/08/07 09:52:02;;;;;;;;;;;;;;;18.92;50.66;100578.41;1722604;82;21000;-60
2022/08/07 09:54:40;;;;;;;;;;;;;;;19.01;50.50;100574.27;1723748;82;20118;-61
2022/08/07 09:57:38;;;;;;;;;;;;;;;19.27;50.48;100571.61;1683137;84;20170;-61
2022/08/07 10:00:13;;;;;;;;;;;;;;;19.55;50.51;100571.83;1681259;83;20120;-61
2022/08/07 10:02:57;;;;;;;;;;;;;;;20.25;51.28;100565.42;1687536;84;20126;-61
2022/08/07 10:05:56;;;;;;;;;;;;;;;21.12;49.94;100561.09;1686375;84;21121;-61
2022/08/07 10:08:44;;;;;;;;;;;;;;;21.63;50.33;100552.15;1692315;84;20477;-61
2022/08/07 10:11:23;;;;;;;;;;;;;;;21.82;49.76;100549.34;1676853;84;20097;-60
2022/08/07 10:13:59;;;;;;;;;;;;;;;22.36;50.44;100543.13;1684859;84;20530;-61
2022/08/07 10:16:48;;;;;;;;;;;;;;;22.98;50.21;100542.28;1687723;84;20117;-61
2022/08/07 10:19:36;;;;;;;;;;;;;;;23.34;49.57;100538.73;1664537;85;21110;-61
2022/08/07 10:22:09;;;;;;;;;;;;;;;23.38;47.84;100539.29;1680122;84;20576;-61
2022/08/07 10:25:06;;;;;;;;;;;;;;;23.01;47.62;100540.68;1692292;84;20103;-61
2022/08/07 10:27:42;;;;;;;;;;;;;;;22.37;46.65;100536.82;1696278;84;20126;-61
2022/08/07 10:30:21;;;;;;;;;;;;;;;22.59;47.54;100528.37;1666877;84;20133;-61
2022/08/07 10:33:03;;;;;;;;;;;;;;;22.77;47.15;100541.45;1665564;84;21151;-61
2022/08/07 10:35:42;;;;;;;;;;;;;;;22.43;46.40;100546.11;1706552;82;21111;-61
2022/08/07 10:38:30;;;;;;;;;;;;;;;21.95;45.50;100544.69;1707371;83;21103;-61
2022/08/07 10:41:08;;;;;;;;;;;;;;;21.23;45.32;100538.03;1706914;83;20099;-61
2022/08/07 10:43:47;;;;;;;;;;;;;;;20.72;45.56;100546.90;1708062;82;20138;-60
2022/08/07 10:46:18;;;;;;;;;;;;;;;20.46;46.23;100542.23;1704847;83;21095;-61
2022/08/07 10:49:13;;;;;;;;;;;;;;;20.42;46.14;100543.44;1706624;83;20169;-61
2022/08/07 10:51:47;;;;;;;;;;;;;;;20.32;46.70;100544.11;1708901;83;20121;-61
2022/08/07 10:54:22;;;;;;;;;;;;;;;20.44;46.54;100538.84;1708683;83;20097;-61
2022/08/07 10:57:04;;;;;;;;;;;;;;;21.00;46.26;100534.98;1696314;83;20121;-61
2022/08/07 10:59:34;;;;;;;;;;;;;;;21.28;45.90;100524.86;1688827;84;21944;-60
2022/08/07 11:02:16;;;;;;;;;;;;;;;21.34;45.89;100519.05;1704348;83;20163;-61
2022/08/07 11:04:49;;;;;;;;;;;;;;;21.28;45.76;100519.05;1708827;83;20109;-61
2022/08/07 11:07:28;;;;;;;;;;;;;;;21.27;45.90;100521.36;1703133;83;20106;-61
2022/08/07 11:09:57;;;;;;;;;;;;;;;21.52;46.62;100509.66;1704683;82;20172;-61
2022/08/07 11:12:30;;;;;;;;;;;;;;;21.96;46.04;100509.64;1703511;83;21775;-61
2022/08/07 11:14:59;;;;;;;;;;;;;;;21.80;45.45;100515.39;1708482;83;20434;-61
2022/08/07 11:17:41;;;;;;;;;;;;;;;21.38;44.40;100508.59;1706261;82;20184;-61
2022/08/07 11:20:22;;;;;;;;;;;;;;;20.99;45.32;100510.26;1704709;83;20099;-61
2022/08/07 11:23:04;;;;;;;;;;;;;;;20.84;45.58;100510.59;1689630;83;20089;-61
2022/08/07 11:25:36;;;;;;;;;;;;;;;20.88;45.92;100504.11;1734841;81;21786;-60
2022/08/07 11:28:09;;;;;;;;;;;;;;;21.14;45.70;100502.05;1738809;81;20445;-61
2022/08/07 11:30:42;;;;;;;;;;;;;;;21.11;45.20;100508.44;1736624;81;20113;-61
2022/08/07 11:33:27;;;;;;;;;;;;;;;21.18;45.89;100499.04;1737404;80;20142;-61
2022/08/07 11:36:00;;;;;;;;;;;;;;;21.49;45.91;100503.75;1734973;81;20117;-61
2022/08/07 11:38:30;;;;;;;;;;;;;;;21.74;46.04;100495.47;1707560;83;22269;-60
2022/08/07 11:41:06;;;;;;;;;;;;;;;22.00;46.23;100495.97;1704370;83;20505;-62
2022/08/07 11:43:35;;;;;;;;;;;;;;;22.23;45.52;100501.22;1701889;83;20095;-61
2022/08/07 11:46:17;;;;;;;;;;;;;;;21.99;45.37;100496.95;1706926;83;20115;-61
2022/08/07 11:49:08;;;;;;;;;;;;;;;21.95;45.80;100500.82;1726012;81;20128;-61
2022/08/07 11:51:47;;;;;;;;;;;;;;;21.83;44.84;100502.68;1715303;82;20957;-61
2022/08/07 11:54:20;;;;;;;;;;;;;;;21.85;45.41;100501.24;1734069;80;20424;-60
2022/08/07 11:57:06;;;;;;;;;;;;;;;22.03;45.37;100501.03;1738872;81;20116;-61
2022/08/07 11:59:48;;;;;;;;;;;;;;;22.08;45.48;100499.34;1736870;80;20604;-59
2022/08/07 12:02:47;;;;;;;;;;;;;;;22.18;44.92;100503.42;1739060;81;20112;-62
2022/08/07 12:05:31;;;;;;;;;;;;;;;22.24;45.55;100509.58;1700987;84;21041;-61
2022/08/07 12:08:13;;;;;;;;;;;;;;;22.26;45.09;100508.94;1696140;84;20109;-62
2022/08/07 12:10:57;;;;;;;;;;;;;;;21.65;44.53;100510.36;1699766;84;20096;-62
2022/08/07 12:13:30;;;;;;;;;;;;;;;21.14;44.82;100518.82;1656957;86;20093;-62
2022/08/07 12:16:20;;;;;;;;;;;;;;;20.82;45.15;100509.90;1643185;87;20134;-62
2022/08/07 12:19:22;;;;;;;;;;;;;;;20.65;45.33;100509.39;1647062;85;20911;-62
2022/08/07 12:22:26;;;;;;;;;;;;;;;20.49;45.46;100507.02;1640676;85;20208;-61
2022/08/07 12:27:49;;;;;;;;;;;;;;;20.86;45.46;100506.03;1632930;87;20504;-61
2022/08/07 12:30:16;;;;;;;;;;;;;;;21.15;45.85;100499.28;1625923;86;20128;-62
2022/08/07 12:33:11;;;;;;;;;;;;;;;21.58;45.94;100495.02;1630828;86;22051;-61
2022/08/07 12:35:39;;;;;;;;;;;;;;;21.89;45.87;100501.33;1629304;87;20188;-61
2022/08/07 12:38:07;;;;;;;;;;;;;;;22.05;45.20;100495.60;1630304;87;20133;-59
2022/08/07 12:40:35;;;;;;;;;;;;;;;21.83;45.14;100492.54;1632438;87;20235;-59
2022/08/07 12:43:07;;;;;;;;;;;;;;;21.82;45.42;100489.53;1647430;86;36153;-59
2022/08/07 12:45:41;;;;;;;;;;;;;;;22.14;45.68;100484.19;1673644;84;22352;-59
2022/08/07 12:48:15;;;;;;;;;;;;;;;22.15;45.25;100487.69;1642672;86;20448;-60
2022/08/07 12:50:54;;;;;;;;;;;;;;;22.01;45.12;100484.35;1704321;83;20132;-60
2022/08/07 12:53:36;;;;;;;;;;;;;;;22.19;45.43;100481.19;1694056;83;20453;-60
2022/08/07 12:56:21;;;;;;;;;;;;;;;22.41;45.23;100483.72;1710604;83;20131;-60
2022/08/07 12:58:49;;;;;;;;;;;;;;;22.21;44.71;100481.88;1711500;82;21092;-60
2022/08/07 13:01:28;;;;;;;;;;;;;;;22.39;45.57;100477.67;1712423;83;20738;-61
2022/08/07 13:03:58;;;;;;;;;;;;;;;22.53;45.11;100474.68;1712321;82;20132;-61
2022/08/07 13:06:54;;;;;;;;;;;;;;;22.47;45.28;100470.38;1710908;82;20139;-60
2022/08/07 13:09:43;;;;;;;;;;;;;;;22.65;44.96;100471.95;1718017;82;20136;-60
2022/08/07 13:12:40;;;;;;;;;;;;;;;22.60;43.70;100475.48;1721454;82;22243;-61